Time;durP1;ratioP1;P1;durP2;ratioP2;P2;SDS_P1;SDS_P2;PMS_P1;PMS_P2;Temp;Humidity;BMP_temperature;BMP_pressure;BME280_temperature;BME280_humidity;BME280_pressure;Samples;Min_cycle;Max_cycle;Signal;HPM_P1;HPM_P2
2021/10/09 00:01:23;;;;;;;62.42;38.80;;;9.90;99.90;;;;;;4845525;29;20562;-87
2021/10/09 00:03:49;;;;;;;71.95;40.70;;;9.90;99.90;;;;;;4870751;29;20049;-85
2021/10/09 00:06:15;;;;;;;67.22;41.25;;;9.80;99.90;;;;;;4849616;29;20040;-86
2021/10/09 00:08:41;;;;;;;71.20;41.88;;;9.80;99.90;;;;;;4843792;29;20460;-86
2021/10/09 00:11:14;;;;;;;62.53;41.28;;;9.80;99.90;;;;;;4841876;29;20072;-86
2021/10/09 00:13:40;;;;;;;66.75;40.75;;;9.80;99.90;;;;;;4844818;29;20863;-87
2021/10/09 00:16:05;;;;;;;71.65;44.20;;;9.80;99.90;;;;;;4837442;29;20127;-85
2021/10/09 00:18:31;;;;;;;66.43;42.13;;;9.80;99.90;;;;;;4848559;29;20043;-85
2021/10/09 00:20:57;;;;;;;74.53;43.70;;;9.80;99.90;;;;;;4846656;29;20045;-85
2021/10/09 00:23:22;;;;;;;70.18;43.08;;;9.80;99.90;;;;;;4827607;29;20127;-85
2021/10/09 00:25:48;;;;;;;66.63;41.53;;;9.70;99.90;;;;;;4862097;29;20484;-86
2021/10/09 00:28:14;;;;;;;76.20;44.67;;;9.70;99.90;;;;;;4859869;29;20111;-85
2021/10/09 00:30:40;;;;;;;70.25;42.50;;;9.70;99.90;;;;;;4848089;29;20041;-85
2021/10/09 00:33:06;;;;;;;79.72;44.85;;;9.70;99.90;;;;;;4845484;29;20112;-85
2021/10/09 00:35:31;;;;;;;73.50;42.80;;;9.70;99.90;;;;;;4851506;29;20274;-86
2021/10/09 00:37:58;;;;;;;72.10;42.35;;;9.70;99.90;;;;;;4843119;29;20055;-86
2021/10/09 00:40:24;;;;;;;75.20;44.42;;;9.70;99.90;;;;;;4873036;29;20119;-85
2021/10/09 00:42:49;;;;;;;78.35;44.95;;;9.70;99.90;;;;;;4873885;29;20045;-86
2021/10/09 00:45:15;;;;;;;74.43;43.60;;;9.70;99.90;;;;;;4863073;29;20036;-85
2021/10/09 00:47:41;;;;;;;75.72;43.53;;;9.70;99.90;;;;;;4878343;29;20600;-86
2021/10/09 00:50:07;;;;;;;77.30;45.20;;;9.70;99.90;;;;;;4836368;29;20037;-86
2021/10/09 00:52:34;;;;;;;75.55;45.00;;;9.60;99.90;;;;;;4852456;29;20179;-85
2021/10/09 00:55:03;;;;;;;77.68;44.00;;;9.60;99.90;;;;;;4873735;29;20762;-85
2021/10/09 00:57:30;;;;;;;77.53;44.40;;;9.70;99.90;;;;;;4874289;29;21655;-86
2021/10/09 01:00:00;;;;;;;75.03;44.70;;;9.60;99.90;;;;;;4841915;29;20123;-86
2021/10/09 01:02:26;;;;;;;78.38;44.38;;;9.60;99.90;;;;;;4860715;29;20092;-85
2021/10/09 01:04:53;;;;;;;82.38;47.10;;;9.60;99.90;;;;;;4843632;29;20036;-85
2021/10/09 01:07:19;;;;;;;87.25;47.28;;;9.60;99.90;;;;;;4863203;29;20037;-87
2021/10/09 01:09:46;;;;;;;89.38;47.15;;;9.60;99.90;;;;;;4857091;29;20769;-85
2021/10/09 01:12:15;;;;;;;86.63;47.38;;;9.60;99.90;;;;;;4862941;29;20053;-86
2021/10/09 01:14:42;;;;;;;91.68;48.38;;;9.60;99.90;;;;;;4870279;29;20493;-85
2021/10/09 01:17:12;;;;;;;91.80;46.50;;;9.60;99.90;;;;;;4858499;29;20045;-86
2021/10/09 01:19:39;;;;;;;93.15;47.95;;;9.60;99.90;;;;;;4859150;29;20501;-85
2021/10/09 01:22:05;;;;;;;84.25;47.17;;;9.60;99.90;;;;;;4843229;29;20377;-86
2021/10/09 01:24:31;;;;;;;94.90;48.50;;;9.60;99.90;;;;;;4846895;29;20041;-85
2021/10/09 01:26:57;;;;;;;89.30;47.70;;;9.60;99.90;;;;;;4846067;29;20885;-85
2021/10/09 01:29:23;;;;;;;90.90;47.20;;;9.60;99.90;;;;;;4849084;29;20044;-84
2021/10/09 01:31:49;;;;;;;87.38;46.55;;;9.60;99.90;;;;;;4864899;29;20077;-84
2021/10/09 01:34:23;;;;;;;92.28;49.83;;;9.70;99.90;;;;;;4860244;29;20101;-88
2021/10/09 01:36:49;;;;;;;95.22;51.00;;;9.60;99.90;;;;;;4869771;29;20048;-87
2021/10/09 01:39:15;;;;;;;86.00;47.00;;;9.70;99.90;;;;;;4854753;29;20041;-84
2021/10/09 01:41:47;;;;;;;92.80;47.40;;;9.60;99.90;;;;;;4871088;29;20522;-86
2021/10/09 01:44:14;;;;;;;98.90;47.88;;;9.70;99.90;;;;;;4858340;29;20047;-86
2021/10/09 01:46:41;;;;;;;101.22;49.70;;;9.60;99.90;;;;;;4855420;29;20678;-84
2021/10/09 01:49:08;;;;;;;109.32;52.05;;;9.70;99.90;;;;;;4857773;29;20067;-85
2021/10/09 01:51:34;;;;;;;108.50;50.50;;;9.60;99.90;;;;;;4843800;29;20690;-85
2021/10/09 01:54:00;;;;;;;98.68;47.95;;;9.60;99.90;;;;;;4864234;29;20095;-85
2021/10/09 01:56:26;;;;;;;109.53;51.22;;;9.60;99.90;;;;;;4869819;29;20072;-87
2021/10/09 01:58:52;;;;;;;101.85;49.00;;;9.60;99.90;;;;;;4859621;29;20051;-86
2021/10/09 02:01:18;;;;;;;90.45;45.33;;;9.60;99.90;;;;;;4854368;29;20464;-87
2021/10/09 02:03:46;;;;;;;89.90;45.83;;;9.60;99.90;;;;;;4859006;29;20048;-87
2021/10/09 02:06:12;;;;;;;104.75;48.22;;;9.60;99.90;;;;;;4859922;29;20566;-85
2021/10/09 02:08:38;;;;;;;120.35;50.22;;;9.60;99.90;;;;;;4870547;29;20349;-85
2021/10/09 02:11:10;;;;;;;109.35;50.38;;;9.60;99.90;;;;;;4852742;29;20128;-86
2021/10/09 02:13:44;;;;;;;112.80;49.85;;;9.60;99.90;;;;;;4848179;29;20041;-86
2021/10/09 02:24:29;;;;;;;98.65;46.65;;;9.60;99.90;;;;;;4848999;29;20539;-85
2021/10/09 02:26:55;;;;;;;114.63;50.75;;;9.60;99.90;;;;;;4847765;29;20044;-85
2021/10/09 02:29:21;;;;;;;126.88;50.65;;;9.60;99.90;;;;;;4861541;29;20052;-86
2021/10/09 02:31:47;;;;;;;104.85;50.08;;;9.60;99.90;;;;;;4843500;29;20048;-87
2021/10/09 02:34:14;;;;;;;122.07;52.80;;;9.60;99.90;;;;;;4861461;29;20032;-87
2021/10/09 02:36:40;;;;;;;134.00;55.45;;;9.60;99.90;;;;;;4846674;29;20512;-85
2021/10/09 02:39:06;;;;;;;138.30;56.72;;;9.60;99.90;;;;;;4861454;29;20119;-85
2021/10/09 02:41:32;;;;;;;149.70;55.38;;;9.70;99.90;;;;;;4855814;29;20044;-87
2021/10/09 02:43:58;;;;;;;166.00;57.95;;;9.70;99.90;;;;;;4875116;29;20071;-84
2021/10/09 02:46:24;;;;;;;173.23;55.90;;;9.80;99.90;;;;;;4859486;29;20064;-84
2021/10/09 02:48:50;;;;;;;178.38;54.22;;;9.80;99.90;;;;;;4829562;29;20049;-86
2021/10/09 02:51:16;;;;;;;191.05;52.78;;;9.80;99.90;;;;;;4844145;29;20408;-85
2021/10/09 02:53:41;;;;;;;256.13;58.08;;;9.80;99.90;;;;;;4876231;29;20036;-85
2021/10/09 02:56:07;;;;;;;258.02;61.25;;;9.80;99.90;;;;;;4860759;29;20130;-85
2021/10/09 02:58:33;;;;;;;236.75;56.92;;;9.70;99.90;;;;;;4842783;29;20045;-84
2021/10/09 03:00:58;;;;;;;291.35;57.15;;;9.70;99.90;;;;;;4856326;29;20051;-84
2021/10/09 03:03:25;;;;;;;310.08;59.63;;;9.80;99.90;;;;;;4853572;29;20044;-90
2021/10/09 03:05:51;;;;;;;239.40;56.28;;;9.70;99.90;;;;;;4860236;29;20131;-88
2021/10/09 03:08:16;;;;;;;159.30;52.83;;;9.80;99.90;;;;;;4859515;29;20040;-88
2021/10/09 03:10:42;;;;;;;228.85;55.58;;;9.70;99.90;;;;;;4845615;29;20059;-84
2021/10/09 03:13:09;;;;;;;251.80;54.47;;;9.70;99.90;;;;;;4845706;29;20048;-85
2021/10/09 03:15:34;;;;;;;176.98;53.70;;;9.80;99.90;;;;;;4840503;29;20044;-86
2021/10/09 03:18:00;;;;;;;338.42;57.90;;;9.70;99.90;;;;;;4853651;29;20499;-82
2021/10/09 03:20:26;;;;;;;229.65;55.97;;;9.70;99.90;;;;;;4860366;29;20041;-85
2021/10/09 03:22:52;;;;;;;271.52;56.67;;;9.70;99.90;;;;;;4873045;29;20179;-85
2021/10/09 03:25:18;;;;;;;221.85;53.03;;;9.80;99.90;;;;;;4839397;29;20793;-86
2021/10/09 03:27:43;;;;;;;259.83;55.90;;;9.70;99.90;;;;;;4841268;29;21094;-84
2021/10/09 03:30:10;;;;;;;271.17;55.47;;;9.70;99.90;;;;;;4843399;29;20160;-85
2021/10/09 03:32:36;;;;;;;209.45;53.25;;;9.70;99.90;;;;;;4843925;29;20438;-84
2021/10/09 03:35:02;;;;;;;279.50;56.47;;;9.70;99.90;;;;;;4835252;29;20049;-85
2021/10/09 03:37:28;;;;;;;263.95;54.05;;;9.70;99.90;;;;;;4836509;29;20049;-84
2021/10/09 03:39:56;;;;;;;277.98;58.60;;;9.70;99.90;;;;;;4856783;29;20079;-85
2021/10/09 03:42:32;;;;;;;243.32;53.72;;;9.70;99.90;;;;;;4826230;29;20531;-84
2021/10/09 03:45:04;;;;;;;255.25;57.10;;;9.70;99.90;;;;;;4860747;29;20032;-84
2021/10/09 03:52:52;;;;;;;192.05;54.95;;;9.70;99.90;;;;;;4863578;29;20111;-85
2021/10/09 03:55:19;;;;;;;221.98;58.13;;;9.70;99.90;;;;;;4840605;29;20666;-85
2021/10/09 03:57:45;;;;;;;190.88;56.30;;;9.70;99.90;;;;;;4846889;29;20638;-84
2021/10/09 04:00:14;;;;;;;182.48;55.92;;;9.70;99.90;;;;;;4875575;29;20569;-84
2021/10/09 04:02:39;;;;;;;189.18;60.75;;;9.70;99.90;;;;;;4868360;29;20036;-86
2021/10/09 04:05:06;;;;;;;162.20;55.28;;;9.70;99.90;;;;;;4829115;29;20270;-85
2021/10/09 04:07:32;;;;;;;165.25;56.17;;;9.70;99.90;;;;;;4876881;29;20049;-86
2021/10/09 04:09:58;;;;;;;193.50;57.13;;;9.70;99.90;;;;;;4860881;29;20111;-86
2021/10/09 04:12:23;;;;;;;192.25;56.00;;;9.70;99.90;;;;;;4859483;29;20044;-84
2021/10/09 04:14:49;;;;;;;145.40;54.55;;;9.70;99.90;;;;;;4828429;29;20658;-87
2021/10/09 04:17:15;;;;;;;176.13;60.15;;;9.70;99.90;;;;;;4846029;29;20609;-87
2021/10/09 04:19:41;;;;;;;148.77;55.20;;;9.70;99.90;;;;;;4858482;29;20474;-86
2021/10/09 04:22:07;;;;;;;224.63;61.97;;;9.70;99.90;;;;;;4873552;29;20036;-85
2021/10/09 04:24:33;;;;;;;235.00;62.35;;;9.80;99.90;;;;;;4859324;29;20037;-87
2021/10/09 04:26:59;;;;;;;266.75;65.32;;;9.80;99.90;;;;;;4842094;29;20076;-84
2021/10/09 04:29:25;;;;;;;222.10;59.15;;;9.80;99.90;;;;;;4875636;29;20469;-84
2021/10/09 04:31:51;;;;;;;229.38;60.83;;;9.80;99.90;;;;;;4863650;29;20260;-87
2021/10/09 04:34:18;;;;;;;217.32;59.22;;;9.80;99.90;;;;;;4858583;29;20048;-86
2021/10/09 04:36:43;;;;;;;267.48;64.22;;;9.80;99.90;;;;;;4888890;29;20139;-85
2021/10/09 04:39:09;;;;;;;236.18;59.22;;;9.80;99.90;;;;;;4863667;29;20036;-84
2021/10/09 04:41:35;;;;;;;292.73;61.78;;;9.80;99.90;;;;;;4859254;29;20049;-85
2021/10/09 04:44:01;;;;;;;217.25;60.85;;;9.80;99.90;;;;;;4878314;29;20048;-86
2021/10/09 04:46:27;;;;;;;287.92;65.85;;;9.80;99.90;;;;;;4865756;29;20043;-86
2021/10/09 04:48:52;;;;;;;279.15;64.93;;;9.80;99.90;;;;;;4844910;29;20549;-86
2021/10/09 04:51:18;;;;;;;240.77;59.42;;;9.80;99.90;;;;;;4845585;29;20497;-85
2021/10/09 04:53:44;;;;;;;213.98;57.90;;;9.80;99.90;;;;;;4879351;29;20492;-85
2021/10/09 04:56:10;;;;;;;245.57;59.17;;;9.80;99.90;;;;;;4828672;29;20585;-85
2021/10/09 04:58:36;;;;;;;211.88;60.38;;;9.70;99.90;;;;;;4842705;29;20507;-82
2021/10/09 05:01:02;;;;;;;267.77;60.90;;;9.70;99.90;;;;;;4842597;29;20099;-87
2021/10/09 05:03:28;;;;;;;275.58;61.20;;;9.70;99.90;;;;;;4858266;29;20515;-85
2021/10/09 05:05:54;;;;;;;368.10;66.25;;;9.70;99.90;;;;;;4858612;29;20044;-85
2021/10/09 05:08:20;;;;;;;318.98;65.65;;;9.70;99.90;;;;;;4847784;29;20040;-84
2021/10/09 05:10:45;;;;;;;315.08;65.13;;;9.70;99.90;;;;;;4842777;29;20087;-85
2021/10/09 05:13:11;;;;;;;298.55;65.43;;;9.60;99.90;;;;;;4847975;29;20403;-86
2021/10/09 05:15:45;;;;;;;319.02;62.17;;;9.70;99.90;;;;;;4844108;29;20136;-84
2021/10/09 05:18:11;;;;;;;323.05;64.60;;;9.70;99.90;;;;;;4864962;29;20041;-85
2021/10/09 05:20:38;;;;;;;309.98;65.95;;;9.60;99.90;;;;;;4854243;29;20480;-84
2021/10/09 05:23:04;;;;;;;321.23;65.95;;;9.60;99.90;;;;;;4841031;29;20153;-85
2021/10/09 05:25:32;;;;;;;232.90;59.38;;;9.60;99.90;;;;;;4849593;29;20627;-85
2021/10/09 05:28:04;;;;;;;205.98;60.08;;;9.60;99.90;;;;;;4866252;29;20103;-84
2021/10/09 05:30:31;;;;;;;191.43;60.38;;;9.60;99.90;;;;;;4852599;29;20049;-86
2021/10/09 05:33:12;;;;;;;210.48;63.28;;;9.60;99.90;;;;;;4876595;29;20040;-87
2021/10/09 05:35:39;;;;;;;170.13;62.07;;;9.60;99.90;;;;;;4863869;29;20036;-86
2021/10/09 05:38:05;;;;;;;204.93;64.53;;;9.50;99.90;;;;;;4861537;29;20496;-85
2021/10/09 05:40:31;;;;;;;209.98;64.40;;;9.60;99.90;;;;;;4827475;29;20033;-85
2021/10/09 05:42:57;;;;;;;172.40;62.25;;;9.60;99.90;;;;;;4835803;29;20558;-86
2021/10/09 05:45:22;;;;;;;207.75;65.38;;;9.60;99.90;;;;;;4841180;29;20472;-84
2021/10/09 05:47:50;;;;;;;182.80;65.10;;;9.60;99.90;;;;;;4841696;29;20515;-86
2021/10/09 05:50:17;;;;;;;165.32;61.58;;;9.60;99.90;;;;;;4832699;29;20049;-83
2021/10/09 05:52:50;;;;;;;168.38;61.33;;;9.60;99.90;;;;;;4867440;29;20449;-86
2021/10/09 05:55:24;;;;;;;175.60;62.00;;;9.60;99.90;;;;;;4840398;29;20055;-85
2021/10/09 06:01:03;;;;;;;155.35;60.15;;;9.60;99.90;;;;;;4852419;29;20056;-84
2021/10/09 07:00:32;;;;;;;115.50;53.38;;;9.60;99.90;;;;;;4876252;29;20878;-86
2021/10/09 07:02:58;;;;;;;123.57;52.80;;;9.60;99.90;;;;;;4856468;29;20540;-86
2021/10/09 07:05:23;;;;;;;122.40;54.53;;;9.60;99.90;;;;;;4863439;29;20135;-87
2021/10/09 07:07:57;;;;;;;116.43;52.88;;;9.60;99.90;;;;;;4862539;29;20054;-84
2021/10/09 07:10:23;;;;;;;123.22;54.47;;;9.60;99.90;;;;;;4835123;29;20132;-87
2021/10/09 07:12:48;;;;;;;132.35;58.63;;;9.50;99.90;;;;;;4864619;29;20507;-88
2021/10/09 07:15:18;;;;;;;105.05;51.45;;;9.50;99.90;;;;;;4872536;29;20043;-87
2021/10/09 07:17:45;;;;;;;119.72;54.88;;;9.50;99.90;;;;;;4845032;29;20041;-87
2021/10/09 07:20:11;;;;;;;132.35;56.22;;;9.60;99.90;;;;;;4863754;29;20501;-86
2021/10/09 07:22:37;;;;;;;133.50;56.60;;;9.60;99.90;;;;;;4874532;29;20079;-87
2021/10/09 07:25:04;;;;;;;112.32;53.70;;;9.60;99.90;;;;;;4862104;29;20063;-86
2021/10/09 07:27:30;;;;;;;119.63;55.05;;;9.60;99.90;;;;;;4843807;29;20089;-85
2021/10/09 07:29:56;;;;;;;120.75;54.50;;;9.60;99.90;;;;;;4857811;29;20037;-85
2021/10/09 07:32:22;;;;;;;118.15;55.97;;;9.60;99.90;;;;;;4847665;29;20499;-86
2021/10/09 07:34:48;;;;;;;134.20;57.28;;;9.60;99.90;;;;;;4847647;29;20186;-85
2021/10/09 07:37:14;;;;;;;114.57;54.35;;;9.70;99.90;;;;;;4851055;29;20045;-86
2021/10/09 07:39:39;;;;;;;125.57;56.67;;;9.60;99.90;;;;;;4848858;29;20044;-86
2021/10/09 07:42:05;;;;;;;109.28;53.35;;;9.70;99.90;;;;;;4848217;29;20037;-86
2021/10/09 07:44:31;;;;;;;106.22;53.00;;;9.70;99.90;;;;;;4848548;29;20262;-85
2021/10/09 07:46:57;;;;;;;104.32;50.47;;;9.70;99.90;;;;;;4857959;29;20037;-87
2021/10/09 07:49:22;;;;;;;102.72;51.50;;;9.80;99.90;;;;;;4849266;29;20101;-85
2021/10/09 07:51:48;;;;;;;104.72;51.22;;;9.70;99.90;;;;;;4867614;29;20048;-84
2021/10/09 07:54:14;;;;;;;93.82;50.22;;;9.70;99.90;;;;;;4895062;29;20055;-85
2021/10/09 07:56:40;;;;;;;97.40;50.75;;;9.80;99.90;;;;;;4876453;29;20084;-84
2021/10/09 07:59:06;;;;;;;97.13;49.28;;;9.70;99.90;;;;;;4863607;29;20206;-85
2021/10/09 08:01:32;;;;;;;94.47;50.70;;;9.60;99.90;;;;;;4865685;29;20100;-85
2021/10/09 08:03:59;;;;;;;92.53;48.58;;;9.60;99.90;;;;;;4859273;29;20041;-84
2021/10/09 08:06:25;;;;;;;97.28;48.13;;;9.60;99.90;;;;;;4848905;29;20598;-84
2021/10/09 08:08:51;;;;;;;98.85;49.40;;;9.60;99.90;;;;;;4831328;29;20063;-84
2021/10/09 08:11:17;;;;;;;93.93;48.65;;;9.60;99.90;;;;;;4847465;29;20096;-84
2021/10/09 08:13:43;;;;;;;86.90;47.78;;;9.60;99.90;;;;;;4880048;29;20092;-83
2021/10/09 08:16:09;;;;;;;92.93;50.38;;;9.60;99.90;;;;;;4844638;29;20275;-87
2021/10/09 08:18:35;;;;;;;97.60;48.17;;;9.70;99.90;;;;;;4829075;29;20124;-86
2021/10/09 08:21:05;;;;;;;89.93;46.95;;;9.70;99.90;;;;;;4850539;29;20116;-82
2021/10/09 08:23:55;;;;;;;85.60;46.83;;;9.70;99.90;;;;;;4863649;29;20509;-85
2021/10/09 08:39:45;;;;;;;81.55;45.22;;;9.80;99.90;;;;;;4845430;29;20729;-84
2021/10/09 08:42:11;;;;;;;82.97;45.95;;;9.80;99.90;;;;;;4878422;29;20041;-85
2021/10/09 08:44:40;;;;;;;84.95;45.75;;;9.90;99.90;;;;;;4861182;29;20063;-85
2021/10/09 08:47:08;;;;;;;80.18;44.58;;;9.90;99.90;;;;;;4846033;29;20040;-85
2021/10/09 08:49:35;;;;;;;84.30;47.08;;;9.90;99.90;;;;;;4848345;29;20064;-85
2021/10/09 08:52:01;;;;;;;83.15;45.97;;;9.90;99.90;;;;;;4830873;29;20436;-85
2021/10/09 08:54:35;;;;;;;83.03;44.92;;;9.90;99.90;;;;;;4847882;29;20489;-83
2021/10/09 08:57:17;;;;;;;86.00;47.92;;;10.00;99.90;;;;;;4855834;29;20060;-83
2021/10/09 08:59:54;;;;;;;80.00;45.00;;;10.00;99.90;;;;;;4875983;29;20036;-86
2021/10/09 09:02:24;;;;;;;78.40;44.78;;;10.10;99.90;;;;;;4857779;29;20135;-84
2021/10/09 09:04:57;;;;;;;83.00;44.35;;;10.10;99.90;;;;;;4847165;29;21486;-84
2021/10/09 09:27:31;;;;;;;71.82;42.10;;;10.60;99.90;;;;;;4871648;29;20114;-86
2021/10/09 09:39:09;;;;;;;71.55;42.00;;;10.80;99.90;;;;;;4870705;29;20041;-86
2021/10/09 09:41:20;;;;;;;71.10;42.42;;;10.90;99.90;;;;;;4873512;29;20459;-86
2021/10/09 09:43:47;;;;;;;73.95;39.83;;;11.00;99.90;;;;;;4872185;29;20155;-84
2021/10/09 09:46:19;;;;;;;73.45;40.38;;;11.00;99.90;;;;;;4848294;29;20040;-85
2021/10/09 09:48:46;;;;;;;58.08;36.55;;;11.10;99.90;;;;;;4880607;29;20056;-87
2021/10/09 09:51:14;;;;;;;59.15;37.15;;;11.20;99.90;;;;;;4866097;29;20063;-86
2021/10/09 09:53:42;;;;;;;68.43;38.58;;;11.30;99.90;;;;;;4870030;29;20432;-86
2021/10/09 09:56:09;;;;;;;65.75;40.42;;;11.30;99.90;;;;;;4866156;29;20147;-84
2021/10/09 09:58:39;;;;;;;62.22;36.67;;;11.40;99.90;;;;;;4854721;29;20036;-86
2021/10/09 10:01:10;;;;;;;65.15;40.20;;;11.40;99.90;;;;;;4866506;29;20059;-86
2021/10/09 10:03:36;;;;;;;59.88;35.50;;;11.40;99.90;;;;;;4869259;29;20068;-86
2021/10/09 10:06:04;;;;;;;60.15;35.25;;;11.40;99.90;;;;;;4886719;29;20032;-85
2021/10/09 10:08:30;;;;;;;59.75;35.15;;;11.50;99.90;;;;;;4854590;29;20574;-86
2021/10/09 10:11:02;;;;;;;60.13;34.83;;;11.50;99.90;;;;;;4848788;29;20135;-85
2021/10/09 10:13:30;;;;;;;;;;;11.60;99.90;;;;;;4874012;29;20246;-86
2021/10/09 10:16:05;;;;;;;61.40;34.70;;;11.60;99.90;;;;;;4881929;29;19967;-87
2021/10/09 10:18:43;;;;;;;60.42;34.67;;;11.70;99.90;;;;;;4879997;29;20452;-86
2021/10/09 10:21:10;;;;;;;50.42;32.05;;;11.70;99.90;;;;;;4879710;29;20099;-85
2021/10/09 10:23:46;;;;;;;51.72;31.00;;;11.80;99.90;;;;;;4842902;29;20065;-87
2021/10/09 10:26:21;;;;;;;49.47;29.10;;;11.80;99.90;;;;;;4861023;29;20100;-86
2021/10/09 10:29:08;;;;;;;43.40;27.13;;;11.90;99.90;;;;;;4867890;29;20044;-86
2021/10/09 10:31:34;;;;;;;52.40;29.25;;;11.90;99.90;;;;;;4841236;29;20576;-86
2021/10/09 10:34:35;;;;;;;47.50;28.35;;;12.00;99.90;;;;;;4857592;29;20511;-84
2021/10/09 10:37:01;;;;;;;47.90;28.20;;;12.00;99.90;;;;;;4848362;29;20132;-86
2021/10/09 10:46:24;;;;;;;45.83;26.33;;;12.30;99.90;;;;;;4882023;29;20058;-85
2021/10/09 10:52:49;;;;;;;46.05;25.58;;;12.40;99.90;;;;;;4876128;29;20047;-84
2021/10/09 11:02:44;;;;;;;41.83;23.58;;;12.50;99.90;;;;;;4869976;29;20060;-85
2021/10/09 11:05:43;;;;;;;41.17;22.55;;;12.60;99.90;;;;;;4872307;29;20048;-85
2021/10/09 11:08:10;;;;;;;36.95;22.67;;;12.60;99.90;;;;;;4867195;29;20056;-85
2021/10/09 11:10:46;;;;;;;41.22;23.25;;;12.70;99.90;;;;;;4840654;29;20424;-85
2021/10/09 11:13:14;;;;;;;39.92;23.02;;;12.70;99.90;;;;;;4872400;29;20048;-87
2021/10/09 11:15:46;;;;;;;37.50;22.70;;;12.80;99.90;;;;;;4860669;29;20044;-85
2021/10/09 11:18:12;;;;;;;38.42;22.02;;;12.90;99.90;;;;;;4881680;29;20040;-86
2021/10/09 11:20:41;;;;;;;41.92;22.58;;;12.90;99.90;;;;;;4840633;29;20096;-86
2021/10/09 11:23:10;;;;;;;37.95;21.60;;;12.90;99.90;;;;;;4871063;29;20120;-87
2021/10/09 11:25:40;;;;;;;35.63;20.35;;;13.00;99.90;;;;;;4866196;29;20041;-87
2021/10/09 11:28:25;;;;;;;36.17;21.10;;;13.00;99.90;;;;;;4886179;29;20135;-85
2021/10/09 11:30:50;;;;;;;37.50;19.42;;;13.00;99.90;;;;;;4882173;29;20139;-85
2021/10/09 11:33:27;;;;;;;29.92;17.95;;;13.10;99.90;;;;;;4888634;29;20502;-86
2021/10/09 11:35:56;;;;;;;32.92;19.02;;;13.20;99.90;;;;;;4862626;29;20084;-86
2021/10/09 11:38:29;;;;;;;35.38;19.20;;;13.30;99.90;;;;;;4887850;29;20159;-84
2021/10/09 11:41:02;;;;;;;;;;;13.30;99.50;;;;;;4885053;29;20052;-86
2021/10/09 11:55:24;;;;;;;28.65;17.38;;;13.50;97.70;;;;;;4877797;29;20049;-85
2021/10/09 11:57:50;;;;;;;35.80;18.35;;;13.60;98.00;;;;;;4882082;29;20048;-85
2021/10/09 12:00:56;;;;;;;31.10;18.67;;;13.60;97.40;;;;;;4863902;29;20499;-85
2021/10/09 12:03:30;;;;;;;29.48;17.27;;;13.60;97.60;;;;;;4882564;29;20037;-85
2021/10/09 12:06:07;;;;;;;30.52;18.00;;;13.70;97.60;;;;;;4871263;29;20045;-87
2021/10/09 12:08:47;;;;;;;31.10;18.40;;;13.70;98.20;;;;;;4873616;29;20041;-85
2021/10/09 12:11:19;;;;;;;32.92;18.13;;;13.80;97.30;;;;;;4880487;29;20697;-84
2021/10/09 12:14:00;;;;;;;31.08;18.25;;;13.80;96.80;;;;;;4884080;29;20036;-84
2021/10/09 12:16:48;;;;;;;27.73;16.80;;;13.80;97.90;;;;;;4883093;29;20510;-86
2021/10/09 12:19:28;;;;;;;29.30;17.52;;;13.80;96.30;;;;;;4870007;29;20103;-85
2021/10/09 12:22:14;;;;;;;29.33;17.35;;;14.00;96.60;;;;;;4885820;29;20517;-86
2021/10/09 12:24:45;;;;;;;32.08;17.23;;;14.10;97.60;;;;;;4875896;29;20072;-85
2021/10/09 12:27:52;;;;;;;38.40;18.20;;;14.10;97.40;;;;;;4872652;29;20534;-83
2021/10/09 12:30:18;;;;;;;33.50;17.80;;;14.10;93.10;;;;;;4874025;29;20055;-85
2021/10/09 12:32:49;;;;;;;31.20;18.08;;;14.10;95.40;;;;;;4835641;29;20053;-88
2021/10/09 12:35:23;;;;;;;33.95;18.13;;;14.10;95.20;;;;;;4875740;29;20795;-84
2021/10/09 12:38:21;;;;;;;35.13;17.98;;;14.10;94.80;;;;;;4876802;29;20037;-86
2021/10/09 12:40:56;;;;;;;28.33;17.88;;;14.20;95.20;;;;;;4825625;29;20412;-84
2021/10/09 12:43:25;;;;;;;33.63;17.27;;;14.20;95.80;;;;;;4881241;29;20285;-85
2021/10/09 12:45:51;;;;;;;30.58;16.75;;;14.20;96.50;;;;;;4864342;29;20075;-85
2021/10/09 12:48:19;;;;;;;28.77;16.60;;;14.20;96.80;;;;;;4849243;29;20048;-84
2021/10/09 12:50:45;;;;;;;26.65;16.83;;;14.30;96.20;;;;;;4847430;29;20096;-83
2021/10/09 12:56:56;;;;;;;32.10;16.83;;;14.30;95.10;;;;;;4839739;29;20231;-85
2021/10/09 12:59:22;;;;;;;30.73;16.70;;;14.30;95.20;;;;;;4826611;29;20054;-85
2021/10/09 13:01:48;;;;;;;27.95;16.60;;;14.40;95.10;;;;;;4842943;29;20059;-86
2021/10/09 13:04:14;;;;;;;28.88;15.52;;;14.40;94.90;;;;;;4835572;29;20040;-85
2021/10/09 13:06:40;;;;;;;26.30;16.27;;;14.40;94.50;;;;;;4869320;29;20127;-86
2021/10/09 13:09:06;;;;;;;28.30;15.77;;;14.40;93.90;;;;;;4826874;29;20037;-84
2021/10/09 13:11:42;;;;;;;27.35;15.52;;;14.40;93.80;;;;;;4863993;29;20122;-87
2021/10/09 13:14:08;;;;;;;31.15;16.35;;;14.50;93.70;;;;;;4866409;29;20037;-86
2021/10/09 13:16:33;;;;;;;25.80;16.27;;;14.50;93.30;;;;;;4834174;29;20051;-86
2021/10/09 13:18:59;;;;;;;26.45;16.65;;;14.50;93.10;;;;;;4836429;29;20126;-85
2021/10/09 13:21:25;;;;;;;26.35;14.52;;;14.60;93.70;;;;;;4874393;29;20561;-85
2021/10/09 13:23:55;;;;;;;28.70;14.85;;;14.60;92.10;;;;;;4867714;29;20033;-85
2021/10/09 13:26:24;;;;;;;28.13;15.25;;;14.60;92.10;;;;;;4864674;29;20576;-85
2021/10/09 13:29:00;;;;;;;22.85;13.98;;;14.80;93.20;;;;;;4853734;29;21541;-85
2021/10/09 13:31:30;;;;;;;28.85;16.75;;;15.00;93.60;;;;;;4828721;29;20070;-85
2021/10/09 13:33:58;;;;;;;30.92;16.42;;;15.20;93.50;;;;;;4811906;29;20062;-85
2021/10/09 13:36:58;;;;;;;31.60;16.65;;;15.20;92.10;;;;;;4812932;29;20056;-85
2021/10/09 13:40:04;;;;;;;31.73;16.30;;;15.20;91.90;;;;;;4824901;29;20053;-85
2021/10/09 13:42:30;;;;;;;28.70;16.33;;;15.10;91.40;;;;;;4816519;29;20215;-86
2021/10/09 13:44:56;;;;;;;30.08;14.20;;;15.00;92.40;;;;;;4814325;29;20585;-86
2021/10/09 13:47:30;;;;;;;32.65;15.20;;;15.00;90.80;;;;;;4820726;29;20057;-84
2021/10/09 13:49:56;;;;;;;20.75;13.70;;;14.90;91.10;;;;;;4829773;29;20045;-84
2021/10/09 13:52:22;;;;;;;24.95;14.10;;;14.90;90.80;;;;;;4800189;29;21012;-86
2021/10/09 13:54:48;;;;;;;25.30;14.38;;;14.90;91.10;;;;;;4802318;29;20049;-87
2021/10/09 13:57:14;;;;;;;24.73;13.65;;;15.00;91.50;;;;;;4832992;29;20046;-86
2021/10/09 13:59:42;;;;;;;24.23;14.70;;;15.00;90.80;;;;;;4815090;29;20440;-85
2021/10/09 14:02:09;;;;;;;28.20;14.63;;;14.90;90.90;;;;;;4831954;29;20064;-85
2021/10/09 14:04:58;;;;;;;29.13;14.85;;;14.90;91.90;;;;;;4869549;29;20139;-86
2021/10/09 14:07:39;;;;;;;21.70;14.70;;;14.90;92.20;;;;;;4852827;29;20053;-85
2021/10/09 14:10:12;;;;;;;19.33;12.82;;;14.90;92.10;;;;;;4868617;29;20048;-85
2021/10/09 14:16:14;;;;;;;28.48;14.23;;;15.00;91.30;;;;;;4887206;29;20044;-85
2021/10/09 14:19:54;;;;;;;28.33;14.55;;;15.00;92.00;;;;;;4863929;29;20424;-86
2021/10/09 14:22:47;;;;;;;25.75;14.27;;;15.10;92.20;;;;;;4772890;29;20051;-85
2021/10/09 14:25:15;;;;;;;26.10;13.70;;;15.50;92.10;;;;;;4775162;29;20054;-86
2021/10/09 14:28:33;;;;;;;23.52;14.70;;;16.10;91.50;;;;;;4880161;29;20055;-86
2021/10/09 14:31:43;;;;;;;22.42;13.68;;;17.50;90.10;;;;;;4893150;29;20063;-86
2021/10/09 14:34:09;;;;;;;26.50;14.48;;;18.60;80.50;;;;;;4859990;29;20052;-85
2021/10/09 14:36:49;;;;;;;23.67;13.80;;;18.80;81.10;;;;;;4869040;29;20043;-87
2021/10/09 14:39:38;;;;;;;29.27;14.73;;;19.10;79.20;;;;;;4860447;29;20613;-86
2021/10/09 14:42:32;;;;;;;23.35;14.20;;;18.80;77.90;;;;;;4878032;29;20103;-87
2021/10/09 14:45:11;;;;;;;19.35;13.52;;;18.30;79.50;;;;;;4872898;29;20064;-86
2021/10/09 14:48:00;;;;;;;22.33;13.48;;;17.80;79.00;;;;;;4899192;29;20048;-87
2021/10/09 14:50:42;;;;;;;23.50;13.55;;;17.40;79.60;;;;;;4883843;29;20729;-85
2021/10/09 14:53:36;;;;;;;23.00;13.53;;;16.90;80.70;;;;;;4884502;29;20052;-88
2021/10/09 15:19:05;;;;;;;26.90;13.73;;;15.50;84.10;;;;;;4865898;29;20057;-86
2021/10/09 15:21:31;;;;;;;26.38;14.07;;;15.50;84.90;;;;;;4867972;29;20417;-87
2021/10/09 15:23:57;;;;;;;25.38;14.10;;;15.70;85.90;;;;;;4845190;29;20044;-87
2021/10/09 15:26:23;;;;;;;23.55;13.95;;;15.70;84.20;;;;;;4854744;29;20472;-87
2021/10/09 15:28:49;;;;;;;26.90;14.45;;;15.70;84.80;;;;;;4866121;29;20196;-85
2021/10/09 15:31:16;;;;;;;26.10;13.88;;;15.60;84.90;;;;;;4837098;29;20169;-86
2021/10/09 15:33:44;;;;;;;27.33;15.63;;;15.60;85.00;;;;;;4864991;29;20040;-87
2021/10/09 15:36:10;;;;;;;29.52;14.07;;;15.60;86.10;;;;;;4857216;29;20355;-87
2021/10/09 15:38:42;;;;;;;26.00;13.90;;;15.50;85.30;;;;;;4846321;29;20234;-86
2021/10/09 15:41:07;;;;;;;37.22;14.18;;;15.40;85.50;;;;;;4845386;29;20055;-87